Flight Track Log - Related Links

Times and Time Zones

All times are in EDT time to prevent confusion due to time zone crossing. See the UAL4588 flight status page for this flight to view local times or setup timezone preferences in your user account.

Time Position Orientation Groundspeed Altitude Reporting Facility
EDT Latitude Longitude Course Direction KTS MPH feet Rate Location/Type
Wed 07:29:44 AM 30.4114 -89.1403 235° Southwest 214 246 2,600  Level Houston Center
Wed 07:30:45 AM 30.3717 -89.2008 233° Southwest 232 267 4,500 2,213 Climbing Houston Center
Wed 07:31:46 AM 30.3208 -89.2631 227° Southwest 259 298 7,100 2,430 Climbing Houston Center
Wed 07:32:46 AM 30.2842 -89.3392 241° Southwest 280 322 9,400 1,983 Climbing Houston Center
Wed 07:33:47 AM 30.3036 -89.4283 284° West 287 330 11,100 1,623 Climbing Houston Center
Wed 07:34:48 AM 30.3464 -89.5175 299° West 315 362 12,700 1,672 Climbing Houston Center
Wed 07:35:00 AM 30.0731 -89.6059 235° Southwest  Level FlightAware Approximate
Wed 07:35:49 AM 30.3169 -89.6275 253° West 327 376 14,500  Level Houston Center
Wed 07:36:50 AM 30.2519 -89.6583 202° Southwest 320 368 15,700 1,377 Climbing Houston Center
Wed 07:37:51 AM 30.1825 -89.7269 221° Southwest 326 375 17,300 1,587 Climbing Houston Center
Wed 07:38:51 AM 30.1300 -89.8100 234° Southwest 323 372 18,900 1,636 Climbing Houston Center
Wed 07:39:52 AM 30.0850 -89.9167 244° Southwest 310 357 20,600 1,426 Climbing Houston Center
Wed 07:40:53 AM 30.0511 -90.0147 248° West 327 376 21,800 1,180 Climbing Houston Center
Wed 07:41:54 AM 30.0256 -90.1206 254° West 340 391 23,000 1,180 Climbing Houston Center
Wed 07:42:55 AM 30.0008 -90.2281 255° West 345 397 24,200 1,131 Climbing Houston Center
Wed 07:43:56 AM 29.9758 -90.3356 255° West 347 399 25,300 1,033 Climbing Houston Center
Wed 07:44:57 AM 29.9486 -90.4456 254° West 355 409 26,300 984 Climbing Houston Center
Wed 07:45:58 AM 29.9222 -90.5572 255° West 360 414 27,300 836 Climbing Houston Center
Wed 07:46:59 AM 29.8958 -90.6697 255° West 365 420 28,000 344 Climbing Houston Center
Wed 07:48:00 AM 29.8664 -90.7886 254° West 382 440 28,000  Level Houston Center
Wed 07:49:01 AM 29.8372 -90.9111 255° West 393 452 28,000  Level Houston Center
Wed 07:50:02 AM 29.8072 -91.0378 255° West 406 467 28,000  Level Houston Center
Wed 07:51:03 AM 29.7761 -91.1664 254° West 414 476 28,000  Level Houston Center
Wed 07:52:04 AM 29.7450 -91.2958 255° West 419 482 28,000  Level Houston Center
Wed 07:53:05 AM 29.7133 -91.4244 254° West 419 482 28,000  Level Houston Center
Wed 07:54:06 AM 29.6758 -91.5778 254° West 416 479 28,000  Level Houston Center
Wed 07:55:07 AM 29.6442 -91.7056 254° West 417 480 28,000  Level Houston Center
Wed 07:56:09 AM 29.6181 -91.8150 255° West 417 480 28,000  Level Houston Center
Wed 07:57:10 AM 29.5797 -91.9681 254° West 416 479 28,000  Level Houston Center
Wed 07:58:11 AM 29.5475 -92.0947 254° West 415 478 28,000  Level Houston Center
Wed 07:59:12 AM 29.5158 -92.2225 254° West 415 478 28,000  Level Houston Center
Wed 08:00:13 AM 29.4850 -92.3475 254° West 410 472 28,000  Level Houston Center
Wed 08:01:14 AM 29.4564 -92.4744 256° West 409 471 28,000  Level Houston Center
Wed 08:02:15 AM 29.4628 -92.6081 273° West 418 481 28,000  Level Houston Center
Wed 08:03:16 AM 29.4692 -92.7408 273° West 418 481 28,000  Level Houston Center
Wed 08:04:18 AM 29.4761 -92.8742 273° West 413 475 28,000  Level Houston Center
Wed 08:05:19 AM 29.4811 -93.0061 273° West 420 483 28,000 -98 Level Houston Center
Wed 08:06:20 AM 29.4869 -93.1381 273° West 415 478 27,800 -1,180 Descending Houston Center
Wed 08:07:21 AM 29.4931 -93.2717 273° West 418 481 25,600 -1,869 Descending Houston Center
Wed 08:08:22 AM 29.4978 -93.4056 272° West 418 481 24,000 -1,721 Descending Houston Center
Wed 08:09:23 AM 29.5042 -93.5597 273° West 407 468 22,100 -1,756 Descending Houston Center
Wed 08:10:25 AM 29.5097 -93.6894 273° West 407 468 20,400 -1,756 Descending Houston Center
Wed 08:11:26 AM 29.5139 -93.8192 272° West 406 467 18,500 -1,833 Descending Houston Center
Wed 08:12:13 AM 29.5183 -93.9169 273° West 390 449 17,100 -2,222 Descending Houston Center
Wed 08:13:14 AM 29.5228 -94.0436 272° West 381 438 14,500 -1,967 Descending Houston Center
Wed 08:14:15 AM 29.5272 -94.1706 272° West 383 441 13,100 -703 Descending Houston Center
Wed 08:15:22 AM 29.5317 -94.2975 272° West 377 434 13,000 -246 Descending Houston Center
Wed 08:16:17 AM 29.5594 -94.4067 286° West 366 421 12,600 -1,091 Descending Houston Center
Wed 08:17:12 AM 29.6000 -94.5000 297° West 367 422 11,000 -1,279 Descending Houston Center
Wed 08:18:19 AM 29.6767 -94.5961 313° West 364 419 10,000 -492 Descending Houston Center
Wed 08:19:14 AM 29.7467 -94.6667 319° Northwest 358 412 10,000 -414 Level Houston Center
Wed 08:20:15 AM 29.8056 -94.7314 316° Northwest 276 318 9,200 -1,219 Descending Houston Center
Wed 08:21:22 AM 29.8567 -94.8044 309° West 274 315 7,400 -1,031 Descending Houston Center
Wed 08:22:23 AM 29.9075 -94.8753 310° West 265 305 7,000 -375 Descending Houston Center
Wed 08:23:30 AM 29.9583 -94.9461 310° West 261 300 6,600 -639 Descending Houston Center
Wed 08:24:25 AM 29.9889 -95.0025 302° West 231 266 5,700 -1,220 Descending Houston Center
Wed 08:25:33 AM 29.9925 -95.0864 273° West 228 262 4,100 -1,317 Descending Houston Center
Wed 08:26:28 AM 29.9925 -95.1542 270° West 226 260 3,000 -1,138 Descending Houston Center
Wed 08:27:29 AM 29.9922 -95.2192 270° West 201 231 1,900 -934 Descending Houston Center
Wed 08:28:30 AM 29.9928 -95.2697 271° West 139 160 1,100 -718 Descending Houston Center
Wed 08:29:51 AM 29.9939 -95.3242 271° West 146 168 200 -667 Descending Houston Center
Wed 08:31:00 AM 29.9833 -95.3333 270° West  Level FlightAware Approximate

Login

Don't have an account? Register now (free) for customized features, flight alerts, and more!